Time;durP1;ratioP1;P1;durP2;ratioP2;P2;SDS_P1;SDS_P2;PMS_P1;PMS_P2;Temp;Humidity;BMP_temperature;BMP_pressure;BME280_temperature;BME280_humidity;BME280_pressure;Samples;Min_cycle;Max_cycle;Signal;HPM_P1;HPM_P2
2023/03/26 00:01:49;;;;;;;7.33;2.10;;;;;;;;;;5103242;28;20209;-71
2023/03/26 00:04:18;;;;;;;9.47;2.10;;;;;;;;;;5097423;28;20217;-70
2023/03/26 00:06:47;;;;;;;6.33;1.83;;;;;;;;;;5102703;28;20244;-70
2023/03/26 00:09:15;;;;;;;6.50;1.97;;;;;;;;;;5112633;27;20206;-71
2023/03/26 00:11:44;;;;;;;5.90;2.03;;;;;;;;;;5106446;27;20209;-72
2023/03/26 00:14:16;;;;;;;6.60;2.10;;;;;;;;;;5101398;28;20197;-71
2023/03/26 00:16:46;;;;;;;5.60;1.93;;;;;;;;;;5112149;27;20208;-71
2023/03/26 00:19:13;;;;;;;9.33;2.47;;;;;;;;;;5109510;27;20208;-71
2023/03/26 00:21:40;;;;;;;8.23;2.20;;;;;;;;;;5098978;27;20202;-71
2023/03/26 00:24:09;;;;;;;8.37;2.20;;;;;;;;;;5106206;27;20204;-71
2023/03/26 00:26:37;;;;;;;7.73;2.13;;;;;;;;;;5109408;27;20233;-71
2023/03/26 00:29:05;;;;;;;5.57;1.60;;;;;;;;;;5103481;27;20217;-70
2023/03/26 00:31:33;;;;;;;8.33;2.20;;;;;;;;;;5105772;27;20285;-71
2023/03/26 00:34:04;;;;;;;5.57;2.17;;;;;;;;;;5108533;27;20197;-71
2023/03/26 00:36:34;;;;;;;11.77;2.40;;;;;;;;;;5101615;27;20201;-71
2023/03/26 00:39:03;;;;;;;6.70;2.20;;;;;;;;;;5098884;27;20267;-71
2023/03/26 00:41:31;;;;;;;8.77;1.97;;;;;;;;;;5100320;27;20202;-71
2023/03/26 00:43:59;;;;;;;8.27;2.20;;;;;;;;;;5101383;27;20201;-70
2023/03/26 00:46:28;;;;;;;7.20;1.93;;;;;;;;;;5101326;28;20201;-70
2023/03/26 00:48:57;;;;;;;7.17;2.60;;;;;;;;;;5100233;28;20206;-71
2023/03/26 00:51:25;;;;;;;6.33;2.27;;;;;;;;;;5102028;27;20194;-71
2023/03/26 00:53:53;;;;;;;6.33;2.10;;;;;;;;;;5099462;28;20209;-70
2023/03/26 00:56:20;;;;;;;19.87;10.87;;;;;;;;;;5100460;28;20213;-71
2023/03/26 00:58:48;;;;;;;9.60;2.60;;;;;;;;;;5102596;28;20208;-70
2023/03/26 01:01:17;;;;;;;6.37;2.43;;;;;;;;;;5096064;28;20207;-62
2023/03/26 01:03:45;;;;;;;6.63;1.90;;;;;;;;;;5099406;27;20263;-62
2023/03/26 01:06:14;;;;;;;5.40;1.90;;;;;;;;;;5102084;27;20228;-62
2023/03/26 01:08:44;;;;;;;11.13;2.30;;;;;;;;;;5097751;27;20222;-62
2023/03/26 01:11:14;;;;;;;10.03;2.30;;;;;;;;;;5098436;28;20206;-61
2023/03/26 01:13:44;;;;;;;8.20;2.10;;;;;;;;;;5097787;28;20209;-62
2023/03/26 01:16:19;;;;;;;5.30;1.97;;;;;;;;;;5097064;27;20205;-63
2023/03/26 01:18:47;;;;;;;7.50;2.23;;;;;;;;;;5104001;27;20209;-62
2023/03/26 01:21:14;;;;;;;6.70;2.07;;;;;;;;;;5102110;27;20202;-62
2023/03/26 01:23:47;;;;;;;13.60;2.20;;;;;;;;;;5100742;27;20191;-62
2023/03/26 01:26:25;;;;;;;13.27;2.80;;;;;;;;;;5101149;27;20206;-62
2023/03/26 01:28:55;;;;;;;9.30;2.30;;;;;;;;;;5104232;27;20232;-62
2023/03/26 01:31:28;;;;;;;12.93;2.13;;;;;;;;;;5100050;28;20206;-62
2023/03/26 01:33:58;;;;;;;7.40;2.23;;;;;;;;;;5099848;27;20206;-62
2023/03/26 01:36:29;;;;;;;9.83;2.40;;;;;;;;;;5099293;27;20200;-62
2023/03/26 01:38:59;;;;;;;9.63;2.40;;;;;;;;;;5103164;27;20193;-62
2023/03/26 01:41:31;;;;;;;6.43;2.63;;;;;;;;;;5099698;28;20209;-62
2023/03/26 01:44:01;;;;;;;9.20;2.10;;;;;;;;;;5101049;28;20198;-62
2023/03/26 01:46:29;;;;;;;8.37;2.27;;;;;;;;;;5101707;27;20205;-61
2023/03/26 01:48:56;;;;;;;6.63;2.30;;;;;;;;;;5107076;27;20428;-62
2023/03/26 01:51:27;;;;;;;9.33;2.27;;;;;;;;;;5103717;27;20208;-61
2023/03/26 01:53:55;;;;;;;9.23;2.27;;;;;;;;;;5103162;27;20206;-70
2023/03/26 01:56:28;;;;;;;10.83;2.47;;;;;;;;;;5097194;27;20194;-71
2023/03/26 01:59:04;;;;;;;10.00;2.23;;;;;;;;;;5100522;28;20197;-70
2023/03/26 02:01:36;;;;;;;8.80;2.70;;;;;;;;;;5104548;28;20206;-71
2023/03/26 02:04:07;;;;;;;11.20;2.40;;;;;;;;;;5104006;27;20210;-70
2023/03/26 02:06:39;;;;;;;9.90;2.57;;;;;;;;;;5105151;27;20278;-70
2023/03/26 02:09:08;;;;;;;13.40;2.70;;;;;;;;;;5097770;28;20233;-70
2023/03/26 02:11:36;;;;;;;10.97;2.67;;;;;;;;;;5100056;28;20248;-70
2023/03/26 02:14:05;;;;;;;10.83;2.60;;;;;;;;;;5100539;27;20198;-71
2023/03/26 02:16:32;;;;;;;9.90;2.60;;;;;;;;;;5101197;27;20223;-70
2023/03/26 02:18:59;;;;;;;12.67;2.57;;;;;;;;;;5098474;27;20194;-70
2023/03/26 02:21:27;;;;;;;8.80;2.83;;;;;;;;;;5102386;28;20209;-70
2023/03/26 02:24:01;;;;;;;16.53;2.90;;;;;;;;;;5098356;27;20202;-71
2023/03/26 02:26:28;;;;;;;8.90;2.17;;;;;;;;;;5112338;27;20225;-70
2023/03/26 02:28:55;;;;;;;5.63;1.93;;;;;;;;;;5095894;27;20222;-70
2023/03/26 02:31:25;;;;;;;9.13;2.00;;;;;;;;;;5102029;28;20214;-71
2023/03/26 02:33:52;;;;;;;9.60;2.50;;;;;;;;;;5104796;27;20190;-71
2023/03/26 02:36:23;;;;;;;11.23;2.87;;;;;;;;;;5100170;28;20221;-70
2023/03/26 02:38:50;;;;;;;7.77;2.40;;;;;;;;;;5097466;27;20202;-70
2023/03/26 02:41:17;;;;;;;7.97;2.80;;;;;;;;;;5098854;27;20202;-70
2023/03/26 02:43:44;;;;;;;12.70;3.77;;;;;;;;;;5102447;27;20202;-69
2023/03/26 02:46:11;;;;;;;12.57;4.33;;;;;;;;;;5099284;28;20212;-70
2023/03/26 02:48:41;;;;;;;7.87;3.00;;;;;;;;;;5097381;27;20229;-71
2023/03/26 02:51:08;;;;;;;9.13;3.00;;;;;;;;;;5104738;27;20305;-71
2023/03/26 02:53:36;;;;;;;8.73;2.87;;;;;;;;;;5103431;27;20217;-71
2023/03/26 02:56:03;;;;;;;11.80;3.07;;;;;;;;;;5101534;27;20217;-70
2023/03/26 02:58:30;;;;;;;9.20;3.33;;;;;;;;;;5096067;28;20209;-71
2023/03/26 03:00:57;;;;;;;9.13;3.17;;;;;;;;;;5098500;28;20233;-71
2023/03/26 03:03:25;;;;;;;8.17;2.57;;;;;;;;;;5099825;28;20240;-70
2023/03/26 03:05:54;;;;;;;10.23;2.83;;;;;;;;;;5098160;28;20217;-71
2023/03/26 03:08:22;;;;;;;9.53;2.87;;;;;;;;;;5103632;27;20216;-71
2023/03/26 03:10:56;;;;;;;10.00;3.07;;;;;;;;;;5095806;27;20251;-70
2023/03/26 03:13:23;;;;;;;9.37;2.80;;;;;;;;;;5098271;28;20192;-72
2023/03/26 03:15:50;;;;;;;9.73;2.67;;;;;;;;;;5102692;27;20204;-72
2023/03/26 03:18:18;;;;;;;8.13;2.50;;;;;;;;;;5100557;28;20197;-72
2023/03/26 03:20:45;;;;;;;10.30;2.90;;;;;;;;;;5101166;27;20215;-71
2023/03/26 03:23:15;;;;;;;9.37;3.00;;;;;;;;;;5101818;27;20282;-71
2023/03/26 03:25:42;;;;;;;11.53;2.70;;;;;;;;;;5097513;28;20201;-71
2023/03/26 03:28:10;;;;;;;9.67;2.40;;;;;;;;;;5097695;28;20229;-71
2023/03/26 03:30:37;;;;;;;9.20;2.50;;;;;;;;;;5104365;27;20205;-71
2023/03/26 03:33:04;;;;;;;8.43;2.20;;;;;;;;;;5098167;27;20202;-70
2023/03/26 03:35:32;;;;;;;8.70;2.67;;;;;;;;;;5096201;28;20194;-71
2023/03/26 03:38:00;;;;;;;9.47;2.60;;;;;;;;;;5092918;28;20197;-71
2023/03/26 03:40:28;;;;;;;7.90;2.30;;;;;;;;;;5097212;27;20208;-70
2023/03/26 03:42:55;;;;;;;10.03;2.43;;;;;;;;;;5096586;28;20202;-70
2023/03/26 03:45:22;;;;;;;9.97;2.27;;;;;;;;;;5101677;28;20225;-70
2023/03/26 03:47:50;;;;;;;6.33;1.97;;;;;;;;;;5095980;28;20254;-71
2023/03/26 03:50:17;;;;;;;7.63;2.07;;;;;;;;;;5095454;28;20209;-70
2023/03/26 03:52:44;;;;;;;13.03;2.43;;;;;;;;;;5099549;28;20202;-71
2023/03/26 03:55:12;;;;;;;7.63;2.33;;;;;;;;;;5100947;28;20201;-71
2023/03/26 03:57:41;;;;;;;7.63;2.43;;;;;;;;;;5098846;28;20224;-70
2023/03/26 04:00:10;;;;;;;8.80;2.40;;;;;;;;;;5097926;28;20212;-71
2023/03/26 04:02:37;;;;;;;7.57;2.60;;;;;;;;;;5098706;28;20280;-71
2023/03/26 04:05:06;;;;;;;10.47;2.60;;;;;;;;;;5099672;28;20200;-71
2023/03/26 04:07:33;;;;;;;12.33;2.43;;;;;;;;;;5100008;28;20201;-70
2023/03/26 04:10:01;;;;;;;7.13;2.20;;;;;;;;;;5098658;28;20210;-62
2023/03/26 04:12:29;;;;;;;7.87;2.17;;;;;;;;;;5099935;28;20293;-62
2023/03/26 04:14:57;;;;;;;12.00;2.70;;;;;;;;;;5099688;28;20213;-62
2023/03/26 04:17:24;;;;;;;9.27;2.80;;;;;;;;;;5097296;27;20202;-62
2023/03/26 04:19:53;;;;;;;12.13;2.93;;;;;;;;;;5099084;28;20201;-62
2023/03/26 04:22:20;;;;;;;6.53;2.47;;;;;;;;;;5103710;28;20198;-62
2023/03/26 04:24:49;;;;;;;7.70;2.50;;;;;;;;;;5095793;28;20209;-62
2023/03/26 04:27:17;;;;;;;7.77;2.73;;;;;;;;;;5101341;28;20205;-62
2023/03/26 04:29:46;;;;;;;11.33;2.27;;;;;;;;;;5099244;28;20316;-62
2023/03/26 04:32:18;;;;;;;9.13;2.30;;;;;;;;;;5101236;28;20202;-62
2023/03/26 04:34:46;;;;;;;11.27;2.50;;;;;;;;;;5103167;28;20229;-62
2023/03/26 04:37:18;;;;;;;7.53;2.63;;;;;;;;;;5102193;28;20262;-63
2023/03/26 04:39:45;;;;;;;10.93;2.30;;;;;;;;;;5102019;28;20193;-61
2023/03/26 04:42:13;;;;;;;7.03;2.50;;;;;;;;;;5098666;28;20224;-62
2023/03/26 04:44:41;;;;;;;8.50;2.20;;;;;;;;;;5089486;28;20366;-62
2023/03/26 04:47:08;;;;;;;9.10;2.27;;;;;;;;;;5091144;28;20303;-62
2023/03/26 04:49:36;;;;;;;7.10;1.80;;;;;;;;;;5092587;28;20226;-62
2023/03/26 04:52:03;;;;;;;8.87;2.33;;;;;;;;;;5093175;27;20202;-62
2023/03/26 04:54:30;;;;;;;8.70;2.23;;;;;;;;;;5096236;27;20200;-62
2023/03/26 04:56:59;;;;;;;7.63;2.50;;;;;;;;;;5094516;27;20201;-62
2023/03/26 04:59:29;;;;;;;7.17;1.83;;;;;;;;;;5097206;27;20204;-62
2023/03/26 05:01:56;;;;;;;8.37;2.73;;;;;;;;;;5097016;27;20204;-61
2023/03/26 05:04:25;;;;;;;6.63;2.50;;;;;;;;;;5099567;28;20201;-62
2023/03/26 05:06:54;;;;;;;7.70;3.00;;;;;;;;;;5105983;28;20198;-61
2023/03/26 05:09:21;;;;;;;8.80;2.33;;;;;;;;;;5105831;27;20317;-62
2023/03/26 05:11:49;;;;;;;5.13;2.10;;;;;;;;;;5097742;28;20206;-61
2023/03/26 05:14:16;;;;;;;5.93;2.63;;;;;;;;;;5103193;28;20206;-62
2023/03/26 05:16:45;;;;;;;5.93;2.30;;;;;;;;;;5099418;28;20201;-62
2023/03/26 05:19:12;;;;;;;8.93;3.07;;;;;;;;;;5103183;28;20194;-62
2023/03/26 05:21:39;;;;;;;11.50;3.40;;;;;;;;;;5096468;28;20197;-62
2023/03/26 05:24:08;;;;;;;8.13;2.77;;;;;;;;;;5098473;27;20212;-62
2023/03/26 05:26:36;;;;;;;9.43;2.63;;;;;;;;;;5095493;27;20201;-62
2023/03/26 05:29:04;;;;;;;7.73;2.70;;;;;;;;;;5095373;27;20223;-62
2023/03/26 05:31:31;;;;;;;5.50;2.50;;;;;;;;;;5093805;27;20194;-62
2023/03/26 05:33:59;;;;;;;7.17;2.37;;;;;;;;;;5097630;27;20197;-62
2023/03/26 05:36:27;;;;;;;7.13;2.57;;;;;;;;;;5095602;27;20194;-62
2023/03/26 05:38:54;;;;;;;8.40;2.83;;;;;;;;;;5100224;28;20213;-62
2023/03/26 05:41:22;;;;;;;7.10;2.40;;;;;;;;;;5103951;28;20205;-62
2023/03/26 05:43:50;;;;;;;6.17;2.03;;;;;;;;;;5092522;28;20198;-62
2023/03/26 05:46:19;;;;;;;7.93;2.30;;;;;;;;;;5100906;28;20205;-61
2023/03/26 05:48:46;;;;;;;7.90;2.33;;;;;;;;;;5100521;28;20217;-62
2023/03/26 05:51:14;;;;;;;5.23;1.90;;;;;;;;;;5100133;28;20244;-62
2023/03/26 05:53:41;;;;;;;4.70;2.10;;;;;;;;;;5103706;28;20296;-62
2023/03/26 05:56:08;;;;;;;6.93;2.00;;;;;;;;;;5106874;27;20209;-62
2023/03/26 05:58:37;;;;;;;7.97;1.87;;;;;;;;;;5100681;28;20201;-62
2023/03/26 06:01:07;;;;;;;5.17;2.17;;;;;;;;;;5107309;28;20247;-62
2023/03/26 06:03:34;;;;;;;10.00;2.30;;;;;;;;;;5106202;27;20193;-62
2023/03/26 06:06:02;;;;;;;7.40;2.07;;;;;;;;;;5111373;28;20204;-62
2023/03/26 06:08:30;;;;;;;7.40;2.10;;;;;;;;;;5097066;28;20201;-62
2023/03/26 06:11:00;;;;;;;8.17;1.93;;;;;;;;;;5104601;28;20201;-62
2023/03/26 06:13:27;;;;;;;6.50;1.90;;;;;;;;;;5103443;28;20194;-62
2023/03/26 06:15:56;;;;;;;5.60;1.93;;;;;;;;;;5094323;28;20205;-62
2023/03/26 06:18:23;;;;;;;6.93;2.07;;;;;;;;;;5108137;28;20212;-62
2023/03/26 06:20:51;;;;;;;5.63;1.97;;;;;;;;;;5094086;28;20202;-62
2023/03/26 06:23:18;;;;;;;5.53;1.67;;;;;;;;;;5101807;27;20198;-62
2023/03/26 06:25:46;;;;;;;6.87;2.10;;;;;;;;;;5101052;28;20209;-62
2023/03/26 06:28:13;;;;;;;6.10;2.03;;;;;;;;;;5093260;28;20366;-62
2023/03/26 06:30:40;;;;;;;7.30;2.57;;;;;;;;;;5102508;28;20198;-62
2023/03/26 06:33:09;;;;;;;4.47;1.80;;;;;;;;;;5098381;27;20225;-62
2023/03/26 06:35:37;;;;;;;4.23;1.67;;;;;;;;;;5100670;28;20270;-62
2023/03/26 06:38:06;;;;;;;4.07;2.00;;;;;;;;;;5101285;28;20199;-61
2023/03/26 06:40:33;;;;;;;5.50;1.83;;;;;;;;;;5097740;28;20283;-62
2023/03/26 06:43:00;;;;;;;6.40;2.03;;;;;;;;;;5098739;28;20213;-61
2023/03/26 06:45:28;;;;;;;5.93;1.90;;;;;;;;;;5097962;28;20232;-62
2023/03/26 06:47:55;;;;;;;1.70;1.50;;;;;;;;;;5093925;28;20205;-62
2023/03/26 06:50:23;;;;;;;4.47;1.70;;;;;;;;;;5105816;28;20222;-61
2023/03/26 06:52:50;;;;;;;4.03;1.50;;;;;;;;;;5097983;28;20209;-62
2023/03/26 06:55:18;;;;;;;5.57;1.97;;;;;;;;;;5109451;28;20208;-61
2023/03/26 06:57:48;;;;;;;4.00;1.70;;;;;;;;;;5092918;28;20213;-61
2023/03/26 07:00:15;;;;;;;3.40;1.60;;;;;;;;;;5094021;28;20202;-61
2023/03/26 07:02:43;;;;;;;5.20;1.60;;;;;;;;;;5108097;27;20206;-62
2023/03/26 07:05:10;;;;;;;4.77;2.00;;;;;;;;;;5103116;28;20201;-62
2023/03/26 07:07:38;;;;;;;2.97;1.90;;;;;;;;;;5095709;28;20194;-62
2023/03/26 07:10:06;;;;;;;4.43;1.90;;;;;;;;;;5098797;28;20218;-62
2023/03/26 07:12:33;;;;;;;3.50;1.63;;;;;;;;;;5097337;28;20206;-61
2023/03/26 07:15:00;;;;;;;7.43;1.83;;;;;;;;;;5099349;28;20202;-62
2023/03/26 07:17:28;;;;;;;4.00;1.67;;;;;;;;;;5100999;28;20202;-61
2023/03/26 07:19:55;;;;;;;3.43;1.80;;;;;;;;;;5099011;28;20193;-61
2023/03/26 07:22:23;;;;;;;2.83;1.77;;;;;;;;;;5111012;28;20209;-61
2023/03/26 07:24:52;;;;;;;3.63;1.60;;;;;;;;;;5107370;28;20200;-61
2023/03/26 07:27:28;;;;;;;2.80;1.60;;;;;;;;;;5093729;28;20210;-62
2023/03/26 07:29:58;;;;;;;5.03;1.70;;;;;;;;;;5094572;28;20222;-62
2023/03/26 07:32:29;;;;;;;3.17;1.70;;;;;;;;;;5104324;28;20209;-62
2023/03/26 07:35:01;;;;;;;3.07;1.50;;;;;;;;;;5093385;28;20202;-62
2023/03/26 07:37:40;;;;;;;3.93;1.90;;;;;;;;;;5105717;28;20260;-62
2023/03/26 07:40:16;;;;;;;5.60;1.90;;;;;;;;;;5095225;28;20199;-62
2023/03/26 07:42:58;;;;;;;3.70;2.00;;;;;;;;;;5098082;28;20208;-62
2023/03/26 07:45:29;;;;;;;3.37;1.60;;;;;;;;;;5093052;28;20230;-62
2023/03/26 07:47:56;;;;;;;1.90;1.40;;;;;;;;;;5093487;28;20289;-62
2023/03/26 07:50:24;;;;;;;2.50;1.50;;;;;;;;;;5092641;28;20222;-62
2023/03/26 07:52:51;;;;;;;3.00;1.70;;;;;;;;;;5100547;28;20209;-63
2023/03/26 07:55:21;;;;;;;2.73;1.80;;;;;;;;;;5096202;28;20212;-63
2023/03/26 07:57:53;;;;;;;3.33;1.50;;;;;;;;;;5092691;28;20206;-62
2023/03/26 08:00:21;;;;;;;1.83;1.40;;;;;;;;;;5094767;28;20197;-62
2023/03/26 08:02:58;;;;;;;2.80;1.70;;;;;;;;;;5105779;28;20255;-62
2023/03/26 08:05:27;;;;;;;3.30;1.80;;;;;;;;;;5098710;28;20197;-62
2023/03/26 08:07:59;;;;;;;4.67;1.87;;;;;;;;;;5099103;28;20231;-62
2023/03/26 08:10:30;;;;;;;3.30;2.20;;;;;;;;;;5106903;28;20213;-62
2023/03/26 08:13:01;;;;;;;3.73;1.80;;;;;;;;;;5093619;28;20206;-62
2023/03/26 08:15:29;;;;;;;4.07;1.60;;;;;;;;;;5092517;28;20193;-62
2023/03/26 08:18:00;;;;;;;2.63;1.37;;;;;;;;;;5107291;28;20202;-62
2023/03/26 08:20:33;;;;;;;4.90;1.40;;;;;;;;;;5104275;28;20201;-62
2023/03/26 08:23:02;;;;;;;2.53;1.40;;;;;;;;;;5104172;28;20229;-62
2023/03/26 08:25:34;;;;;;;2.80;1.53;;;;;;;;;;5092508;28;20206;-62
2023/03/26 08:28:09;;;;;;;1.60;1.33;;;;;;;;;;5098211;28;20202;-62
2023/03/26 08:30:36;;;;;;;4.07;1.50;;;;;;;;;;5096554;28;20229;-62
2023/03/26 08:33:11;;;;;;;4.80;1.50;;;;;;;;;;5101890;28;20202;-62
2023/03/26 08:35:41;;;;;;;3.63;1.47;;;;;;;;;;5100271;28;20265;-62
2023/03/26 08:38:08;;;;;;;3.40;1.53;;;;;;;;;;5103735;28;20206;-62
2023/03/26 08:40:53;;;;;;;3.90;1.47;;;;;;;;;;5103948;28;20209;-62
2023/03/26 08:43:35;;;;;;;4.23;1.60;;;;;;;;;;5094823;28;20208;-62
2023/03/26 08:46:12;;;;;;;4.63;2.50;;;;;;;;;;5097355;28;20226;-62
2023/03/26 08:49:00;;;;;;;7.97;2.30;;;;;;;;;;5102479;28;20201;-61
2023/03/26 08:51:51;;;;;;;4.70;1.70;;;;;;;;;;5097716;28;20252;-61
2023/03/26 08:54:28;;;;;;;1.87;1.17;;;;;;;;;;5101872;28;20231;-61
2023/03/26 08:57:04;;;;;;;2.10;1.00;;;;;;;;;;5099292;28;20209;-62
2023/03/26 08:59:50;;;;;;;1.17;0.80;;;;;;;;;;5094713;28;20280;-62
2023/03/26 09:02:36;;;;;;;2.97;1.30;;;;;;;;;;5102723;28;20225;-62
2023/03/26 09:05:18;;;;;;;2.40;1.30;;;;;;;;;;5104587;28;20206;-62
2023/03/26 09:08:03;;;;;;;2.63;1.23;;;;;;;;;;5106063;28;20228;-62
2023/03/26 09:10:41;;;;;;;1.00;0.90;;;;;;;;;;5098072;28;20236;-62
2023/03/26 09:13:15;;;;;;;2.17;0.83;;;;;;;;;;5101532;28;20202;-62
2023/03/26 09:15:57;;;;;;;1.70;0.60;;;;;;;;;;5094145;28;20212;-62
2023/03/26 09:18:43;;;;;;;1.90;1.00;;;;;;;;;;5102631;28;20198;-61
2023/03/26 09:21:29;;;;;;;3.20;0.70;;;;;;;;;;5100706;28;20209;-62
2023/03/26 09:24:14;;;;;;;1.17;0.90;;;;;;;;;;5097309;28;20193;-70
2023/03/26 09:26:46;;;;;;;1.97;0.80;;;;;;;;;;5097353;28;20209;-70
2023/03/26 09:29:32;;;;;;;0.60;0.60;;;;;;;;;;5092253;27;20198;-70
2023/03/26 09:32:17;;;;;;;0.50;0.50;;;;;;;;;;5097139;28;20208;-70
2023/03/26 09:34:55;;;;;;;0.80;0.60;;;;;;;;;;5102530;27;20202;-71
2023/03/26 09:37:26;;;;;;;0.70;0.53;;;;;;;;;;5104402;28;20205;-71
2023/03/26 09:40:05;;;;;;;0.80;0.80;;;;;;;;;;5106225;27;20223;-70
2023/03/26 09:42:35;;;;;;;1.73;0.93;;;;;;;;;;5101306;27;20196;-70
2023/03/26 09:45:30;;;;;;;2.10;1.00;;;;;;;;;;5099690;28;20233;-70
2023/03/26 09:48:18;;;;;;;1.67;0.87;;;;;;;;;;5100091;27;20197;-70
2023/03/26 09:50:57;;;;;;;1.77;1.10;;;;;;;;;;5098676;27;20229;-70
2023/03/26 09:53:45;;;;;;;3.20;1.50;;;;;;;;;;5098115;28;20202;-70
2023/03/26 09:56:21;;;;;;;1.57;1.10;;;;;;;;;;5093289;28;20194;-69
2023/03/26 09:59:06;;;;;;;1.03;0.70;;;;;;;;;;5099297;28;20201;-69
2023/03/26 10:01:40;;;;;;;1.67;0.83;;;;;;;;;;5098080;28;20196;-69
2023/03/26 10:04:34;;;;;;;4.10;1.17;;;;;;;;;;5104448;27;20205;-69
2023/03/26 10:07:07;;;;;;;3.60;1.27;;;;;;;;;;5100935;28;20258;-70
2023/03/26 10:09:47;;;;;;;1.80;0.83;;;;;;;;;;5099564;27;20210;-69
2023/03/26 10:12:26;;;;;;;2.00;0.80;;;;;;;;;;5098328;27;20206;-68
2023/03/26 10:15:00;;;;;;;1.90;0.60;;;;;;;;;;5104738;27;20202;-69
2023/03/26 10:17:37;;;;;;;1.80;0.90;;;;;;;;;;5097213;28;20202;-69
2023/03/26 10:20:16;;;;;;;1.30;0.87;;;;;;;;;;5106651;27;20200;-69
2023/03/26 10:22:49;;;;;;;2.17;0.90;;;;;;;;;;5096185;28;20221;-69
2023/03/26 10:25:26;;;;;;;2.17;0.90;;;;;;;;;;5104642;27;20202;-69
2023/03/26 10:27:58;;;;;;;2.40;0.87;;;;;;;;;;5101277;28;20197;-68
2023/03/26 10:30:35;;;;;;;3.00;1.00;;;;;;;;;;5100999;28;20225;-69
2023/03/26 10:33:07;;;;;;;1.97;1.07;;;;;;;;;;5102362;28;20198;-69
2023/03/26 10:35:40;;;;;;;1.70;1.20;;;;;;;;;;5096139;28;20219;-68
2023/03/26 10:38:16;;;;;;;2.87;1.13;;;;;;;;;;5099160;28;20194;-69
2023/03/26 10:40:52;;;;;;;1.50;1.10;;;;;;;;;;5103462;28;20213;-69
2023/03/26 10:43:33;;;;;;;5.80;1.40;;;;;;;;;;5098520;28;20197;-69
2023/03/26 10:46:09;;;;;;;2.70;1.00;;;;;;;;;;5101112;27;20320;-70
2023/03/26 10:48:59;;;;;;;2.53;1.00;;;;;;;;;;5096907;28;20198;-69
2023/03/26 10:51:41;;;;;;;3.33;1.00;;;;;;;;;;5089079;28;20222;-68
2023/03/26 10:54:15;;;;;;;3.87;1.20;;;;;;;;;;5093085;28;20207;-70
2023/03/26 10:56:44;;;;;;;2.07;1.07;;;;;;;;;;5095475;28;20205;-70
2023/03/26 10:59:13;;;;;;;4.40;1.93;;;;;;;;;;5102634;27;20197;-69
2023/03/26 11:01:42;;;;;;;3.63;1.30;;;;;;;;;;5095798;27;20210;-69
2023/03/26 11:04:18;;;;;;;3.43;1.20;;;;;;;;;;5095168;28;20193;-69
2023/03/26 11:06:50;;;;;;;3.30;1.10;;;;;;;;;;5095479;28;20210;-69
2023/03/26 11:09:23;;;;;;;3.80;1.10;;;;;;;;;;5095360;28;20194;-69
2023/03/26 11:11:55;;;;;;;3.30;1.03;;;;;;;;;;5091500;28;20210;-69
2023/03/26 11:14:25;;;;;;;4.47;1.50;;;;;;;;;;5100220;27;20202;-69
2023/03/26 11:16:58;;;;;;;2.27;1.03;;;;;;;;;;5097014;27;20202;-70
2023/03/26 11:19:31;;;;;;;2.70;0.87;;;;;;;;;;5095383;28;20205;-70
2023/03/26 11:22:02;;;;;;;3.17;1.40;;;;;;;;;;5100887;28;20222;-69
2023/03/26 11:24:48;;;;;;;2.27;1.20;;;;;;;;;;5091090;28;20202;-62
2023/03/26 11:27:20;;;;;;;2.20;1.00;;;;;;;;;;5099423;28;20219;-62
2023/03/26 11:29:52;;;;;;;2.70;1.07;;;;;;;;;;5095870;28;20207;-61
2023/03/26 11:32:22;;;;;;;2.03;0.93;;;;;;;;;;5096306;28;20194;-62
2023/03/26 11:34:55;;;;;;;1.87;0.80;;;;;;;;;;5096014;28;20197;-62
2023/03/26 11:37:28;;;;;;;2.10;0.80;;;;;;;;;;5092967;28;20194;-62
2023/03/26 11:39:57;;;;;;;1.00;0.50;;;;;;;;;;5098351;28;20209;-62
2023/03/26 11:42:26;;;;;;;2.77;0.60;;;;;;;;;;5093674;28;20194;-62
2023/03/26 11:44:55;;;;;;;2.13;1.10;;;;;;;;;;5094685;28;20234;-62
2023/03/26 11:47:24;;;;;;;0.90;0.40;;;;;;;;;;5095874;28;20242;-62
2023/03/26 11:49:52;;;;;;;0.93;0.60;;;;;;;;;;5102844;28;20198;-62
2023/03/26 11:52:20;;;;;;;0.97;0.40;;;;;;;;;;5097255;28;20210;-61
2023/03/26 11:54:49;;;;;;;1.57;0.40;;;;;;;;;;5102455;28;20220;-62
2023/03/26 11:57:19;;;;;;;1.63;0.70;;;;;;;;;;5099505;28;20243;-62
2023/03/26 11:59:51;;;;;;;0.83;0.60;;;;;;;;;;5101357;28;20297;-61
2023/03/26 12:02:24;;;;;;;1.67;0.70;;;;;;;;;;5102417;28;20220;-62
2023/03/26 12:04:54;;;;;;;0.70;0.50;;;;;;;;;;5103546;27;20275;-62
2023/03/26 12:07:22;;;;;;;1.83;0.70;;;;;;;;;;5103551;28;20293;-62
2023/03/26 12:09:52;;;;;;;0.80;0.60;;;;;;;;;;5109114;28;20206;-62
2023/03/26 12:12:19;;;;;;;4.73;0.90;;;;;;;;;;5095265;28;20226;-62
2023/03/26 12:14:48;;;;;;;1.97;0.80;;;;;;;;;;5096271;28;20202;-61
2023/03/26 12:17:25;;;;;;;3.10;1.10;;;;;;;;;;5101155;28;20209;-61
2023/03/26 12:19:52;;;;;;;2.30;1.10;;;;;;;;;;5103591;28;20217;-61
2023/03/26 12:22:30;;;;;;;1.73;0.97;;;;;;;;;;5099417;28;20205;-61
2023/03/26 12:25:12;;;;;;;3.10;1.00;;;;;;;;;;5105217;28;20213;-62
2023/03/26 12:27:43;;;;;;;2.60;1.10;;;;;;;;;;5106278;28;20272;-62
2023/03/26 12:30:13;;;;;;;1.90;1.10;;;;;;;;;;5106730;28;20210;-61
2023/03/26 12:32:43;;;;;;;3.10;1.30;;;;;;;;;;5102577;28;20217;-62
2023/03/26 12:35:17;;;;;;;2.90;1.20;;;;;;;;;;5106388;28;20210;-62
2023/03/26 12:37:45;;;;;;;4.57;1.20;;;;;;;;;;5101771;28;20206;-61
2023/03/26 12:40:27;;;;;;;5.13;1.50;;;;;;;;;;5103060;28;20202;-62
2023/03/26 12:42:55;;;;;;;2.53;1.13;;;;;;;;;;5099695;28;20202;-62
2023/03/26 12:45:24;;;;;;;5.33;2.23;;;;;;;;;;5095609;28;20244;-61
2023/03/26 12:47:52;;;;;;;5.13;1.90;;;;;;;;;;5101707;28;20205;-61
2023/03/26 12:50:22;;;;;;;2.53;1.20;;;;;;;;;;5099414;28;20229;-62
2023/03/26 12:53:01;;;;;;;5.57;1.57;;;;;;;;;;5100432;28;20202;-61
2023/03/26 12:55:41;;;;;;;3.83;1.70;;;;;;;;;;5100369;28;20212;-61
2023/03/26 12:58:16;;;;;;;2.90;1.20;;;;;;;;;;5102428;28;20198;-61
2023/03/26 13:00:49;;;;;;;3.17;1.47;;;;;;;;;;5104835;28;20206;-61
2023/03/26 13:03:23;;;;;;;1.67;1.17;;;;;;;;;;5102596;27;20217;-61
2023/03/26 13:06:05;;;;;;;3.67;1.57;;;;;;;;;;5102544;28;20259;-62
2023/03/26 13:08:45;;;;;;;6.27;1.70;;;;;;;;;;5089254;28;20214;-61
2023/03/26 13:11:15;;;;;;;4.30;1.50;;;;;;;;;;5102684;28;20225;-62
2023/03/26 13:13:55;;;;;;;3.20;1.03;;;;;;;;;;5102329;28;20202;-62
2023/03/26 13:16:28;;;;;;;4.67;1.40;;;;;;;;;;5097042;28;20204;-62
2023/03/26 13:18:57;;;;;;;2.77;1.10;;;;;;;;;;5099318;28;20212;-61
2023/03/26 13:21:29;;;;;;;4.80;1.00;;;;;;;;;;5107174;27;20202;-62
2023/03/26 13:24:00;;;;;;;2.23;1.00;;;;;;;;;;5098101;28;20209;-62
2023/03/26 13:26:36;;;;;;;5.50;2.00;;;;;;;;;;5099929;28;20213;-61
2023/03/26 13:29:08;;;;;;;4.10;1.70;;;;;;;;;;5106179;28;20201;-62
2023/03/26 13:31:40;;;;;;;3.43;1.30;;;;;;;;;;5098294;28;20222;-61
2023/03/26 13:34:11;;;;;;;3.90;1.33;;;;;;;;;;5103743;28;20225;-62
2023/03/26 13:36:45;;;;;;;5.27;1.23;;;;;;;;;;5103193;28;20201;-62
2023/03/26 13:39:18;;;;;;;5.60;1.90;;;;;;;;;;5100226;28;20210;-62
2023/03/26 13:41:56;;;;;;;4.63;1.70;;;;;;;;;;5105198;28;20217;-62
2023/03/26 13:44:27;;;;;;;4.07;1.40;;;;;;;;;;5102553;28;20233;-61
2023/03/26 13:47:00;;;;;;;4.00;1.50;;;;;;;;;;5101474;28;20202;-62
2023/03/26 13:49:32;;;;;;;4.63;1.77;;;;;;;;;;5099701;28;20209;-62
2023/03/26 13:52:01;;;;;;;6.10;1.40;;;;;;;;;;5103177;28;20328;-62
2023/03/26 13:54:31;;;;;;;2.13;0.90;;;;;;;;;;5097429;28;20221;-62
2023/03/26 13:57:01;;;;;;;2.67;1.10;;;;;;;;;;5098417;28;20206;-61
2023/03/26 13:59:31;;;;;;;3.97;1.13;;;;;;;;;;5103830;28;20208;-61
2023/03/26 14:02:02;;;;;;;3.47;1.50;;;;;;;;;;5096329;28;20198;-61
2023/03/26 14:04:31;;;;;;;2.00;1.07;;;;;;;;;;5096350;28;20204;-62
2023/03/26 14:07:01;;;;;;;3.23;1.10;;;;;;;;;;5101483;28;20218;-62
2023/03/26 14:09:31;;;;;;;2.00;1.47;;;;;;;;;;5103340;28;20204;-61
2023/03/26 14:12:08;;;;;;;4.73;1.97;;;;;;;;;;5094147;27;20217;-61
2023/03/26 14:14:40;;;;;;;3.27;2.30;;;;;;;;;;5100483;27;20232;-61
2023/03/26 14:17:13;;;;;;;3.60;1.80;;;;;;;;;;5101843;27;20198;-61
2023/03/26 14:19:52;;;;;;;4.93;1.83;;;;;;;;;;5100188;28;20206;-61
2023/03/26 14:22:24;;;;;;;3.60;1.97;;;;;;;;;;5098843;28;20212;-61
2023/03/26 14:24:56;;;;;;;5.03;1.77;;;;;;;;;;5098141;28;20212;-61
2023/03/26 14:27:33;;;;;;;3.27;1.20;;;;;;;;;;5098881;28;20209;-61
2023/03/26 14:30:14;;;;;;;2.50;1.60;;;;;;;;;;5101316;27;20221;-61
2023/03/26 14:32:50;;;;;;;3.50;1.30;;;;;;;;;;5100145;28;20205;-62
2023/03/26 14:35:25;;;;;;;3.07;1.50;;;;;;;;;;5102241;28;20202;-62
2023/03/26 14:38:06;;;;;;;0.70;0.70;;;;;;;;;;5096867;28;20197;-62
2023/03/26 14:40:41;;;;;;;2.10;0.70;;;;;;;;;;5098675;28;20198;-61
2023/03/26 14:43:19;;;;;;;1.73;0.63;;;;;;;;;;5102357;28;20201;-62
2023/03/26 14:45:53;;;;;;;2.83;1.00;;;;;;;;;;5109103;28;20229;-62
2023/03/26 14:48:38;;;;;;;1.53;0.70;;;;;;;;;;5101869;28;20206;-62
2023/03/26 14:51:12;;;;;;;2.40;1.37;;;;;;;;;;5104757;28;20206;-62
2023/03/26 14:53:42;;;;;;;1.13;0.90;;;;;;;;;;5098972;28;20233;-62
2023/03/26 14:56:28;;;;;;;3.10;2.10;;;;;;;;;;5106739;27;20213;-61
2023/03/26 14:59:10;;;;;;;3.30;0.80;;;;;;;;;;5097255;28;20206;-62
2023/03/26 15:01:53;;;;;;;1.60;0.70;;;;;;;;;;5103464;28;20205;-62
2023/03/26 15:04:35;;;;;;;2.13;0.70;;;;;;;;;;5099922;28;20206;-62
2023/03/26 15:07:24;;;;;;;2.90;0.93;;;;;;;;;;5083449;28;20206;-61